Fure West — OZ2100 — position and weather

sailwx.info

Track history (hours):
 
Tides and Currents Weather Stations Pressure Air Temp Water Temp Dewpoint Dewpoint Depression Visibility Wind Speed Wind Dir Waves Ship Positions

Fure West

Last reported at 2015-Jul-03 17:34 UTC. Time now 2015-Jul-04 15:15 UTC.
Position N 55°49' E 000°32'.

Length 144 m; draft 6 m.

Type: Tanker. MMSI: 231775000.

Date/timePositionNaut miles runAvg speedWind from/ knotsBaromVisibWave heightAir tempDewpointWater temp
2015-Jul-03 17:34N 55°49' E 000°32'1313.0
2015-Jul-03 16:33N 55°39' E 000°17'1312.7
2015-Jul-03 15:33N 55°29' E 000°03'1312.7
2015-Jul-03 14:33N 55°19' W 000°11'1312.8
2015-Jul-03 13:31N 55°09' W 000°26'1313.2
2015-Jul-03 12:32N 54°59' W 000°41'1715.6
2015-Jul-03 11:26N 54°47' W 001°01'6 6.6
2015-Jul-03 10:32N 54°43' W 001°08'7 2.7
2015-Jul-03 08:03N 54°36' W 001°10'0 0.0
2015-Jul-02 10:11N 54°36' W 001°10'0 0.0
2015-Jul-02 09:32N 54°36' W 001°10'0 0.0
2015-Jul-02 08:33N 54°36' W 001°10'0 0.0
2015-Jul-02 07:33N 54°36' W 001°10'2 1.8
2015-Jul-02 06:33N 54°38' W 001°09'4 4.3
2015-Jul-02 05:31N 54°40' W 001°03'0 0.0
2015-Jul-02 04:32N 54°40' W 001°03'0 0.0
2015-Jul-02 03:31N 54°40' W 001°03'0 0.0
2015-Jul-02 02:28N 54°40' W 001°03'0 0.1
2015-Jul-02 01:31N 54°40' W 001°03'0 0.1
2015-Jul-02 00:31N 54°40' W 001°03'0 0.0
2015-Jul-01 23:31N 54°40' W 001°03'0 0.0
2015-Jul-01 22:31N 54°40' W 001°03'0 0.0
2015-Jul-01 21:32N 54°40' W 001°03'0 0.0
2015-Jul-01 20:31N 54°40' W 001°03'0 0.0
2015-Jul-01 19:31N 54°40' W 001°03'0 0.0
2015-Jul-01 18:32N 54°40' W 001°03'0 0.0
2015-Jul-01 17:31N 54°40' W 001°03'0 0.0
2015-Jul-01 16:31N 54°40' W 001°03'0 0.0
2015-Jul-01 15:31N 54°40' W 001°03'0 0.0
2015-Jul-01 14:32N 54°40' W 001°03'0 0.0
2015-Jul-01 13:31N 54°40' W 001°03'0 0.0
2015-Jul-01 12:31N 54°40' W 001°03'0 0.0
2015-Jul-01 11:31N 54°40' W 001°03'0 0.0
2015-Jul-01 10:32N 54°40' W 001°03'0 0.0
2015-Jul-01 09:31N 54°40' W 001°03'0 0.0
2015-Jul-01 08:31N 54°40' W 001°03'0 0.0
2015-Jul-01 07:32N 54°40' W 001°03'0 0.0
2015-Jul-01 06:31N 54°40' W 001°03'0 0.0
2015-Jul-01 05:31N 54°40' W 001°03'0 0.0
2015-Jul-01 04:31N 54°40' W 001°03'0 0.1
2015-Jul-01 03:31N 54°40' W 001°03'0 0.0
2015-Jul-01 02:31N 54°40' W 001°03'0 0.0
2015-Jul-01 01:31N 54°40' W 001°03'0 0.1
2015-Jul-01 00:23N 54°40' W 001°03'0 0.1
2015-Jun-30 23:31N 54°40' W 001°03'0 0.0
2015-Jun-30 22:31N 54°40' W 001°03'0 0.0
2015-Jun-30 21:25N 54°40' W 001°03'0 0.0
2015-Jun-30 20:31N 54°40' W 001°03'0 0.0
2015-Jun-30 19:31N 54°40' W 001°03'0 0.0
2015-Jun-30 18:28N 54°40' W 001°03'0 0.0
2015-Jun-30 17:31N 54°40' W 001°03'0 0.0
2015-Jun-30 16:31N 54°40' W 001°03'0 0.0
2015-Jun-30 15:31N 54°40' W 001°03'0 0.0
2015-Jun-30 14:31N 54°40' W 001°03'0 0.0
2015-Jun-30 13:31N 54°40' W 001°03'0 0.1
2015-Jun-30 12:31N 54°40' W 001°03'0 0.1
2015-Jun-30 11:22N 54°40' W 001°03'0 0.1
2015-Jun-30 10:31N 54°40' W 001°03'0 0.1
2015-Jun-30 09:33N 54°40' W 001°03'9 8.7
2015-Jun-30 08:33N 54°37' W 000°48'1414.4
2015-Jun-30 07:33N 54°30' W 000°27'1414.2
2015-Jun-30 06:34N 54°21' W 000°08'1313.0
2015-Jun-30 05:34N 54°14' E 000°10'1212.1
2015-Jun-30 04:34N 54°06' E 000°27'1211.6
2015-Jun-30 03:33N 53°59' E 000°42'3611.8
2015-Jun-30 00:32N 53°49' E 001°40'8011.1
2015-Jun-29 17:18N 53°50' E 003°56'911.9
2015-Jun-29 16:33N 53°55' E 004°08'1111.0
2015-Jun-29 15:33N 54°02' E 004°23'1111.2
2015-Jun-29 14:33N 54°03' E 004°42'1211.6
2015-Jun-29 13:33N 54°05' E 005°02'1211.9
2015-Jun-29 12:34N 54°06' E 005°22'1211.9
2015-Jun-29 11:34N 54°08' E 005°42'1212.3
2015-Jun-29 10:32N 54°10' E 006°03'5312.2
2015-Jun-29 06:13N 54°12' E 007°33'811.3
2015-Jun-29 05:33N 54°08' E 007°44'1111.6
2015-Jun-29 04:34N 54°03' E 008°01'1212.3
2015-Jun-29 03:33N 53°60' E 008°21'1515.0
2015-Jun-29 02:33N 53°52' E 008°44'1514.7
2015-Jun-29 01:34N 53°53' E 009°08'0 0.5
2015-Jun-29 00:34N 53°54' E 009°09'6 6.4
2015-Jun-28 23:33N 53°59' E 009°16'9 8.1
2015-Jun-28 22:26N 54°07' E 009°20'4 4.9
2015-Jun-28 21:33N 54°10' E 009°26'8 7.6
2015-Jun-28 20:33N 54°14' E 009°37'4 3.7
2015-Jun-28 19:33N 54°17' E 009°40'20 4.1
2015-Jun-28 14:33N 54°25' E 010°12'9 8.7
2015-Jun-28 13:33N 54°31' E 010°22'5 5.1
2015-Jun-28 12:33N 54°33' E 010°30'4 3.8
2015-Jun-28 11:33N 54°35' E 010°37'3 3.4
2015-Jun-28 10:33N 54°35' E 010°42'4 3.8
2015-Jun-28 09:33N 54°35' E 010°49'1313.1
2015-Jun-28 08:33N 54°36' E 011°11'1413.7
2015-Jun-28 07:33N 54°30' E 011°33'1414.0
2015-Jun-28 06:33N 54°26' E 011°56'2311.4
2015-Jun-28 04:33N 54°41' E 012°26'8412.0
2015-Jun-27 21:33N 54°40' E 014°52'1313.2
2015-Jun-27 20:33N 54°42' E 015°14'1613.2
2015-Jun-27 19:21N 54°44' E 015°41'9013.2
2015-Jun-27 12:33N 54°58' E 018°15'1312.7
2015-Jun-27 11:33N 54°56' E 018°37'1312.9
2015-Jun-27 10:33N 54°49' E 018°56'1212.3
2015-Jun-27 09:33N 54°38' E 019°06'1312.8
2015-Jun-27 08:33N 54°26' E 018°58'9 8.9
2015-Jun-27 07:31N 54°24' E 018°43'0 0.0
2015-Jun-26 04:33N 54°24' E 018°43'4 4.1
2015-Jun-26 03:33N 54°25' E 018°50'1111.0
2015-Jun-26 02:33N 54°34' E 019°02'1010.1
2015-Jun-26 01:33N 54°44' E 019°01'1110.7
2015-Jun-26 00:33N 54°52' E 018°49'1111.0
2015-Jun-25 23:33N 54°57' E 018°32'1111.2
2015-Jun-25 22:33N 54°57' E 018°12'20610.3
2015-Jun-25 02:33N 54°33' E 012°17'9 9.0
2015-Jun-25 01:33N 54°25' E 012°10'10 9.6
2015-Jun-25 00:33N 54°25' E 011°54'9 9.0
2015-Jun-24 23:33N 54°27' E 011°39'1010.4
2015-Jun-24 22:33N 54°32' E 011°23'1010.2
2015-Jun-24 21:33N 54°35' E 011°06'9 9.3
2015-Jun-24 20:33N 54°35' E 010°50'8 8.3
2015-Jun-24 19:33N 54°34' E 010°36'9 8.6
2015-Jun-24 18:33N 54°31' E 010°22'10 9.5
2015-Jun-24 17:33N 54°23' E 010°12'3 3.1
2015-Jun-24 16:33N 54°22' E 010°07'8 7.7
2015-Jun-24 15:33N 54°21' E 009°54'7 6.5
2015-Jun-24 14:33N 54°19' E 009°43'7 6.8
2015-Jun-24 13:33N 54°14' E 009°36'9 8.7
2015-Jun-24 12:33N 54°09' E 009°23'8 8.0
2015-Jun-24 11:33N 54°02' E 009°18'8 8.3
2015-Jun-24 10:33N 53°55' E 009°11'2 2.4
2015-Jun-24 09:33N 53°53' E 009°09'1312.8
2015-Jun-24 08:33N 53°45' E 009°25'1413.8
2015-Jun-24 07:33N 53°34' E 009°41'9 8.8
2015-Jun-24 06:33N 53°33' E 009°55'  
Track history (hours):
 
Tides and Currents Weather Stations Pressure Air Temp Water Temp Dewpoint Dewpoint Depression Visibility Wind Speed Wind Dir Waves Ship Positions

Fure West

Last reported at 2015-Jul-03 17:34 UTC. Time now 2015-Jul-04 15:15 UTC.
Position N 55°49' E 000°32'.

Length 144 m; draft 6 m.

Type: Tanker. MMSI: 231775000.

Date/timePositionNaut miles runAvg speedWind from/ knotsBaromVisibWave heightAir tempDewpointWater temp
2015-Jul-03 17:34N 55°49' E 000°32'1313.0
2015-Jul-03 16:33N 55°39' E 000°17'1312.7
2015-Jul-03 15:33N 55°29' E 000°03'1312.7
2015-Jul-03 14:33N 55°19' W 000°11'1312.8
2015-Jul-03 13:31N 55°09' W 000°26'1313.2
2015-Jul-03 12:32N 54°59' W 000°41'1715.6
2015-Jul-03 11:26N 54°47' W 001°01'6 6.6
2015-Jul-03 10:32N 54°43' W 001°08'7 2.7
2015-Jul-03 08:03N 54°36' W 001°10'0 0.0
2015-Jul-02 10:11N 54°36' W 001°10'0 0.0
2015-Jul-02 09:32N 54°36' W 001°10'0 0.0
2015-Jul-02 08:33N 54°36' W 001°10'0 0.0
2015-Jul-02 07:33N 54°36' W 001°10'2 1.8
2015-Jul-02 06:33N 54°38' W 001°09'4 4.3
2015-Jul-02 05:31N 54°40' W 001°03'0 0.0
2015-Jul-02 04:32N 54°40' W 001°03'0 0.0
2015-Jul-02 03:31N 54°40' W 001°03'0 0.0
2015-Jul-02 02:28N 54°40' W 001°03'0 0.1
2015-Jul-02 01:31N 54°40' W 001°03'0 0.1
2015-Jul-02 00:31N 54°40' W 001°03'0 0.0
2015-Jul-01 23:31N 54°40' W 001°03'0 0.0
2015-Jul-01 22:31N 54°40' W 001°03'0 0.0
2015-Jul-01 21:32N 54°40' W 001°03'0 0.0
2015-Jul-01 20:31N 54°40' W 001°03'0 0.0
2015-Jul-01 19:31N 54°40' W 001°03'0 0.0
2015-Jul-01 18:32N 54°40' W 001°03'0 0.0
2015-Jul-01 17:31N 54°40' W 001°03'0 0.0
2015-Jul-01 16:31N 54°40' W 001°03'0 0.0
2015-Jul-01 15:31N 54°40' W 001°03'0 0.0
2015-Jul-01 14:32N 54°40' W 001°03'0 0.0
2015-Jul-01 13:31N 54°40' W 001°03'0 0.0
2015-Jul-01 12:31N 54°40' W 001°03'0 0.0
2015-Jul-01 11:31N 54°40' W 001°03'0 0.0
2015-Jul-01 10:32N 54°40' W 001°03'0 0.0
2015-Jul-01 09:31N 54°40' W 001°03'0 0.0
2015-Jul-01 08:31N 54°40' W 001°03'0 0.0
2015-Jul-01 07:32N 54°40' W 001°03'0 0.0
2015-Jul-01 06:31N 54°40' W 001°03'0 0.0
2015-Jul-01 05:31N 54°40' W 001°03'0 0.0
2015-Jul-01 04:31N 54°40' W 001°03'0 0.1
2015-Jul-01 03:31N 54°40' W 001°03'0 0.0
2015-Jul-01 02:31N 54°40' W 001°03'0 0.0
2015-Jul-01 01:31N 54°40' W 001°03'0 0.1
2015-Jul-01 00:23N 54°40' W 001°03'0 0.1
2015-Jun-30 23:31N 54°40' W 001°03'0 0.0
2015-Jun-30 22:31N 54°40' W 001°03'0 0.0
2015-Jun-30 21:25N 54°40' W 001°03'0 0.0
2015-Jun-30 20:31N 54°40' W 001°03'0 0.0
2015-Jun-30 19:31N 54°40' W 001°03'0 0.0
2015-Jun-30 18:28N 54°40' W 001°03'0 0.0
2015-Jun-30 17:31N 54°40' W 001°03'0 0.0
2015-Jun-30 16:31N 54°40' W 001°03'0 0.0
2015-Jun-30 15:31N 54°40' W 001°03'0 0.0
2015-Jun-30 14:31N 54°40' W 001°03'0 0.0
2015-Jun-30 13:31N 54°40' W 001°03'0 0.1
2015-Jun-30 12:31N 54°40' W 001°03'0 0.1
2015-Jun-30 11:22N 54°40' W 001°03'0 0.1
2015-Jun-30 10:31N 54°40' W 001°03'0 0.1
2015-Jun-30 09:33N 54°40' W 001°03'9 8.7
2015-Jun-30 08:33N 54°37' W 000°48'1414.4
2015-Jun-30 07:33N 54°30' W 000°27'1414.2
2015-Jun-30 06:34N 54°21' W 000°08'1313.0
2015-Jun-30 05:34N 54°14' E 000°10'1212.1
2015-Jun-30 04:34N 54°06' E 000°27'1211.6
2015-Jun-30 03:33N 53°59' E 000°42'3611.8
2015-Jun-30 00:32N 53°49' E 001°40'8011.1
2015-Jun-29 17:18N 53°50' E 003°56'911.9
2015-Jun-29 16:33N 53°55' E 004°08'1111.0
2015-Jun-29 15:33N 54°02' E 004°23'1111.2
2015-Jun-29 14:33N 54°03' E 004°42'1211.6
2015-Jun-29 13:33N 54°05' E 005°02'1211.9
2015-Jun-29 12:34N 54°06' E 005°22'1211.9
2015-Jun-29 11:34N 54°08' E 005°42'1212.3
2015-Jun-29 10:32N 54°10' E 006°03'5312.2
2015-Jun-29 06:13N 54°12' E 007°33'811.3
2015-Jun-29 05:33N 54°08' E 007°44'1111.6
2015-Jun-29 04:34N 54°03' E 008°01'1212.3
2015-Jun-29 03:33N 53°60' E 008°21'1515.0
2015-Jun-29 02:33N 53°52' E 008°44'1514.7
2015-Jun-29 01:34N 53°53' E 009°08'0 0.5
2015-Jun-29 00:34N 53°54' E 009°09'6 6.4
2015-Jun-28 23:33N 53°59' E 009°16'9 8.1
2015-Jun-28 22:26N 54°07' E 009°20'4 4.9
2015-Jun-28 21:33N 54°10' E 009°26'8 7.6
2015-Jun-28 20:33N 54°14' E 009°37'4 3.7
2015-Jun-28 19:33N 54°17' E 009°40'20 4.1
2015-Jun-28 14:33N 54°25' E 010°12'9 8.7
2015-Jun-28 13:33N 54°31' E 010°22'5 5.1
2015-Jun-28 12:33N 54°33' E 010°30'4 3.8
2015-Jun-28 11:33N 54°35' E 010°37'3 3.4
2015-Jun-28 10:33N 54°35' E 010°42'4 3.8
2015-Jun-28 09:33N 54°35' E 010°49'1313.1
2015-Jun-28 08:33N 54°36' E 011°11'1413.7
2015-Jun-28 07:33N 54°30' E 011°33'1414.0
2015-Jun-28 06:33N 54°26' E 011°56'2311.4
2015-Jun-28 04:33N 54°41' E 012°26'8412.0
2015-Jun-27 21:33N 54°40' E 014°52'1313.2
2015-Jun-27 20:33N 54°42' E 015°14'1613.2
2015-Jun-27 19:21N 54°44' E 015°41'9013.2
2015-Jun-27 12:33N 54°58' E 018°15'1312.7
2015-Jun-27 11:33N 54°56' E 018°37'1312.9
2015-Jun-27 10:33N 54°49' E 018°56'1212.3
2015-Jun-27 09:33N 54°38' E 019°06'1312.8
2015-Jun-27 08:33N 54°26' E 018°58'9 8.9
2015-Jun-27 07:31N 54°24' E 018°43'0 0.0
2015-Jun-26 04:33N 54°24' E 018°43'4 4.1
2015-Jun-26 03:33N 54°25' E 018°50'1111.0
2015-Jun-26 02:33N 54°34' E 019°02'1010.1
2015-Jun-26 01:33N 54°44' E 019°01'1110.7
2015-Jun-26 00:33N 54°52' E 018°49'1111.0
2015-Jun-25 23:33N 54°57' E 018°32'1111.2
2015-Jun-25 22:33N 54°57' E 018°12'20610.3
2015-Jun-25 02:33N 54°33' E 012°17'9 9.0
2015-Jun-25 01:33N 54°25' E 012°10'10 9.6
2015-Jun-25 00:33N 54°25' E 011°54'9 9.0
2015-Jun-24 23:33N 54°27' E 011°39'1010.4
2015-Jun-24 22:33N 54°32' E 011°23'1010.2
2015-Jun-24 21:33N 54°35' E 011°06'9 9.3
2015-Jun-24 20:33N 54°35' E 010°50'8 8.3
2015-Jun-24 19:33N 54°34' E 010°36'9 8.6
2015-Jun-24 18:33N 54°31' E 010°22'10 9.5
2015-Jun-24 17:33N 54°23' E 010°12'3 3.1
2015-Jun-24 16:33N 54°22' E 010°07'8 7.7
2015-Jun-24 15:33N 54°21' E 009°54'7 6.5
2015-Jun-24 14:33N 54°19' E 009°43'7 6.8
2015-Jun-24 13:33N 54°14' E 009°36'9 8.7
2015-Jun-24 12:33N 54°09' E 009°23'8 8.0
2015-Jun-24 11:33N 54°02' E 009°18'8 8.3
2015-Jun-24 10:33N 53°55' E 009°11'2 2.4
2015-Jun-24 09:33N 53°53' E 009°09'1312.8
2015-Jun-24 08:33N 53°45' E 009°25'1413.8
2015-Jun-24 07:33N 53°34' E 009°41'9 8.8
2015-Jun-24 06:33N 53°33' E 009°55'  

Dump ship's entire track history